Time;durP1;ratioP1;P1;durP2;ratioP2;P2;SDS_P1;SDS_P2;PMS_P1;PMS_P2;Temp;Humidity;BMP_temperature;BMP_pressure;BME280_temperature;BME280_humidity;BME280_pressure;Samples;Min_cycle;Max_cycle;Signal;HPM_P1;HPM_P2
2020/12/17 00:01:59;;;;;;;34.28;23.15;;;;;;;5.98;77.74;101692.38;5049310;28;20467;-73
2020/12/17 00:04:25;;;;;;;;;;;;;;;6.01;78.34;101688.22;5051749;28;20035;-72
2020/12/17 00:06:51;;;;;;;36.42;23.48;;;;;;;5.84;78.44;101659.63;5070505;28;19912;-72
2020/12/17 00:09:17;;;;;;;36.83;23.52;;;;;;;5.96;78.83;101693.88;5052327;28;20044;-73
2020/12/17 00:11:43;;;;;;;40.78;25.15;;;;;;;5.66;80.38;101689.91;5051891;28;20421;-72
2020/12/17 00:14:09;;;;;;;40.78;26.20;;;;;;;5.51;80.91;101699.88;5070691;28;20035;-72
2020/12/17 00:16:35;;;;;;;40.10;25.85;;;;;;;5.28;81.82;101670.81;5054829;28;20066;-72
2020/12/17 00:19:01;;;;;;;42.22;26.58;;;;;;;5.51;81.94;101680.25;5070869;28;20025;-72
2020/12/17 00:21:26;;;;;;;43.22;28.25;;;;;;;5.57;81.60;101679.84;5070697;28;20467;-72
2020/12/17 00:23:52;;;;;;;44.65;26.40;;;;;;;5.56;81.76;101684.81;5070208;28;20090;-73
2020/12/17 00:26:17;;;;;;;41.83;25.80;;;;;;;5.41;81.97;101692.22;5069495;28;20112;-74
2020/12/17 00:28:43;;;;;;;39.72;25.23;;;;;;;5.31;81.85;101649.66;5053390;28;20021;-74
2020/12/17 00:31:08;;;;;;;39.75;24.38;;;;;;;5.18;82.43;101669.19;5049548;28;20448;-76
2020/12/17 00:33:34;;;;;;;37.10;24.20;;;;;;;5.05;82.90;101678.31;5033132;28;20051;-73
2020/12/17 00:35:59;;;;;;;40.97;23.58;;;;;;;5.04;82.52;101672.34;5050228;28;20540;-73
2020/12/17 00:38:25;;;;;;;37.92;24.10;;;;;;;5.00;82.45;101672.88;5052331;28;20052;-74
2020/12/17 00:40:50;;;;;;;37.25;23.60;;;;;;;5.02;83.00;101687.56;5058716;28;20074;-72
2020/12/17 00:43:15;;;;;;;34.88;21.90;;;;;;;4.96;83.08;101674.28;5069487;28;20409;-71
2020/12/17 00:45:41;;;;;;;37.05;22.15;;;;;;;4.92;83.86;101679.03;5069704;28;20467;-71
2020/12/17 00:48:06;;;;;;;38.97;23.90;;;;;;;4.82;84.08;101679.97;5066778;28;20031;-71
2020/12/17 00:50:32;;;;;;;36.28;22.58;;;;;;;4.66;84.60;101681.31;5070368;28;20386;-71
2020/12/17 00:52:57;;;;;;;38.60;23.50;;;;;;;4.74;83.77;101673.38;5049271;28;20028;-71
2020/12/17 00:55:23;;;;;;;36.42;22.00;;;;;;;4.81;82.96;101679.09;5070349;28;20108;-70
2020/12/17 00:57:48;;;;;;;33.75;19.13;;;;;;;4.69;82.83;101647.41;5070398;28;20027;-71
2020/12/17 01:00:14;;;;;;;38.72;21.65;;;;;;;4.84;83.60;101674.19;5069770;28;20052;-71
2020/12/17 01:02:39;;;;;;;35.85;20.77;;;;;;;4.58;84.16;101646.53;5048888;28;20071;-74
2020/12/17 01:05:06;;;;;;;38.03;23.30;;;;;;;4.79;84.83;101674.63;5048314;28;20037;-73
2020/12/17 01:07:32;;;;;;;38.13;22.88;;;;;;;4.73;84.60;101662.22;5069795;28;20033;-73
2020/12/17 01:09:58;;;;;;;34.75;20.88;;;;;;;4.66;84.44;101676.19;5070628;28;20356;-73
2020/12/17 01:12:23;;;;;;;34.78;21.40;;;;;;;4.73;84.02;101666.47;5054602;28;20440;-73
2020/12/17 01:14:48;;;;;;;37.50;23.13;;;;;;;4.71;85.34;101668.91;5073527;28;20050;-73
2020/12/17 01:17:15;;;;;;;38.63;22.98;;;;;;;4.68;84.94;101673.75;5073569;28;20037;-71
2020/12/17 01:19:41;;;;;;;35.45;21.00;;;;;;;4.67;84.93;101671.97;5071560;28;20028;-74
2020/12/17 01:22:07;;;;;;;36.75;21.63;;;;;;;4.73;84.50;101675.00;5073369;28;20063;-73
2020/12/17 01:24:32;;;;;;;35.85;21.17;;;;;;;4.77;84.10;101665.91;5073626;28;20048;-71
2020/12/17 01:26:58;;;;;;;36.03;21.27;;;;;;;4.62;84.52;101647.69;5073845;28;20477;-72
2020/12/17 01:29:24;;;;;;;33.25;19.70;;;;;;;4.61;83.99;101630.53;5074072;28;20028;-72
2020/12/17 01:31:59;;;;;;;23.17;14.10;;;;;;;4.72;82.35;101659.56;5073260;28;20020;-71
2020/12/17 01:34:25;;;;;;;23.55;14.20;;;;;;;4.76;82.29;101657.38;5073344;28;20052;-73
2020/12/17 01:36:55;;;;;;;25.45;16.00;;;;;;;4.81;82.09;101653.50;5073374;28;20473;-72
2020/12/17 01:39:23;;;;;;;28.17;16.65;;;;;;;4.70;82.81;101659.44;5073533;28;20028;-71
2020/12/17 01:41:50;;;;;;;26.65;16.70;;;;;;;4.87;83.20;101660.75;5072548;28;20029;-71
2020/12/17 01:44:15;;;;;;;28.25;18.50;;;;;;;4.95;82.61;101656.25;5057321;28;20024;-69
2020/12/17 01:46:41;;;;;;;29.05;17.67;;;;;;;5.00;81.95;101650.72;5057162;28;20108;-71
2020/12/17 01:49:07;;;;;;;111.63;69.18;;;;;;;5.11;82.00;101656.69;5054268;28;20504;-73
2020/12/17 01:51:33;;;;;;;41.95;25.52;;;;;;;5.19;81.89;101655.59;5052530;28;20040;-72
2020/12/17 01:53:58;;;;;;;28.17;17.73;;;;;;;5.13;81.58;101660.25;5056927;28;20028;-71
2020/12/17 01:56:28;;;;;;;27.30;16.90;;;;;;;4.92;81.65;101632.97;5054012;28;20124;-71
2020/12/17 01:59:11;;;;;;;26.52;16.95;;;;;;;5.06;81.51;101657.09;5053279;28;20021;-72
2020/12/17 02:01:42;;;;;;;26.65;16.33;;;;;;;5.11;80.94;101655.78;5052813;28;20060;-71
2020/12/17 02:04:09;;;;;;;24.30;16.50;;;;;;;4.93;81.25;101656.13;5052758;28;20024;-71
2020/12/17 02:06:35;;;;;;;25.92;16.60;;;;;;;4.96;81.46;101658.94;5019874;28;20073;-72
2020/12/17 02:09:01;;;;;;;27.95;16.65;;;;;;;4.86;81.24;101628.28;5054886;28;20029;-73
2020/12/17 02:11:27;;;;;;;70.82;60.53;;;;;;;5.08;80.90;101650.44;5037736;28;20078;-69
2020/12/17 02:13:52;;;;;;;36.22;24.02;;;;;;;5.11;80.34;101654.13;5053816;28;20449;-70
2020/12/17 02:16:18;;;;;;;33.17;18.15;;;;;;;5.06;80.46;101651.97;5054005;28;20025;-70
2020/12/17 02:18:44;;;;;;;28.33;17.77;;;;;;;5.13;79.90;101641.44;5052623;28;20029;-70
2020/12/17 02:21:10;;;;;;;31.60;18.63;;;;;;;5.23;80.02;101635.38;5051991;28;20421;-70
2020/12/17 02:23:37;;;;;;;30.08;17.75;;;;;;;5.26;80.34;101653.50;5054293;28;20040;-71
2020/12/17 02:26:03;;;;;;;32.88;18.77;;;;;;;5.34;79.45;101640.53;5054989;28;20040;-70
2020/12/17 02:28:28;;;;;;;35.60;20.20;;;;;;;5.20;79.39;101643.72;5053640;28;20025;-70
2020/12/17 02:30:54;;;;;;;29.55;17.88;;;;;;;5.35;79.34;101642.31;5052253;28;20459;-70
2020/12/17 02:33:19;;;;;;;34.30;19.27;;;;;;;5.40;79.69;101644.38;5054488;28;20514;-70
2020/12/17 02:35:45;;;;;;;39.22;19.50;;;;;;;5.51;78.75;101643.50;5054414;28;20045;-70
2020/12/17 02:38:10;;;;;;;38.88;19.85;;;;;;;5.37;78.03;101611.72;5055125;28;20017;-70
2020/12/17 02:40:36;;;;;;;40.55;20.45;;;;;;;5.39;78.51;101611.84;5056846;28;20056;-70
2020/12/17 02:43:02;;;;;;;43.17;22.02;;;;;;;5.52;77.70;101642.75;5053691;28;20115;-68
2020/12/17 02:45:28;;;;;;;40.40;20.67;;;;;;;5.48;78.70;101648.38;5054557;28;20537;-70
2020/12/17 02:47:53;;;;;;;40.45;21.05;;;;;;;5.57;78.26;101655.88;5052955;28;20020;-70
2020/12/17 02:50:19;;;;;;;42.67;20.92;;;;;;;5.51;77.94;101646.94;5052816;28;20099;-70
2020/12/17 02:52:45;;;;;;;40.88;21.98;;;;;;;5.63;77.79;101662.38;5051891;28;20465;-71
2020/12/17 02:55:11;;;;;;;44.33;20.73;;;;;;;5.55;77.73;101619.91;5052319;28;20067;-71
2020/12/17 02:57:36;;;;;;;50.45;23.55;;;;;;;5.59;77.21;101621.91;5052429;28;20496;-70
2020/12/17 03:00:12;;;;;;;46.30;22.55;;;;;;;5.78;77.34;101659.19;5055399;28;20032;-67
2020/12/17 03:02:37;;;;;;;49.85;24.33;;;;;;;5.62;77.75;101632.41;5052618;28;20462;-68
2020/12/17 03:05:04;;;;;;;50.33;24.42;;;;;;;5.77;78.60;101668.53;5053508;28;20108;-69
2020/12/17 03:07:30;;;;;;;54.80;24.77;;;;;;;5.73;79.08;101658.84;5051652;28;20029;-70
2020/12/17 03:09:55;;;;;;;51.15;23.10;;;;;;;5.70;79.42;101665.41;5009666;28;20038;-68
2020/12/17 03:12:21;;;;;;;55.75;23.85;;;;;;;5.74;78.59;101663.16;5008831;28;20042;-71
2020/12/17 03:14:46;;;;;;;57.25;24.75;;;;;;;5.73;78.33;101658.84;5003110;28;20044;-72
2020/12/17 03:17:12;;;;;;;68.68;27.58;;;;;;;5.80;78.88;101663.63;5012083;28;20025;-73
2020/12/17 03:19:37;;;;;;;61.63;26.70;;;;;;;5.66;79.36;101660.03;5010027;28;20116;-72
2020/12/17 03:22:03;;;;;;;68.28;27.80;;;;;;;5.59;79.83;101651.78;5009566;28;20054;-69
2020/12/17 03:24:28;;;;;;;72.55;31.25;;;;;;;5.56;80.30;101657.56;5008937;28;20050;-71
2020/12/17 03:26:54;;;;;;;66.40;29.58;;;;;;;5.62;80.13;101659.69;5008737;28;20102;-69
2020/12/17 03:29:19;;;;;;;70.15;29.65;;;;;;;5.67;79.89;101654.13;5010786;28;20104;-71
2020/12/17 03:31:45;;;;;;;66.78;29.88;;;;;;;5.76;79.46;101660.75;5010534;28;20595;-71
2020/12/17 03:34:10;;;;;;;65.55;29.55;;;;;;;5.74;79.09;101667.41;5011018;28;20506;-74
2020/12/17 03:36:36;;;;;;;72.15;30.40;;;;;;;5.77;78.24;101670.19;5017947;28;20136;-72
2020/12/17 03:39:01;;;;;;;75.22;30.33;;;;;;;5.75;78.25;101666.66;5028658;28;20389;-71
2020/12/17 03:41:47;;;;;;;69.72;28.98;;;;;;;5.77;78.03;101665.06;5044687;28;20380;-71
2020/12/17 03:44:12;;;;;;;76.05;31.23;;;;;;;5.78;78.89;101665.22;5031680;28;20460;-71
2020/12/17 03:46:38;;;;;;;72.40;28.77;;;;;;;5.86;78.00;101667.44;5048242;28;20168;-68
2020/12/17 03:49:03;;;;;;;82.72;31.67;;;;;;;5.74;77.19;101663.16;5048421;28;20484;-67
2020/12/17 03:51:29;;;;;;;80.47;36.40;;;;;;;5.55;77.73;101632.72;5048417;28;20036;-68
2020/12/17 03:53:55;;;;;;;84.75;35.33;;;;;;;5.54;78.45;101663.34;5048599;28;20064;-68
2020/12/17 03:56:20;;;;;;;95.88;35.90;;;;;;;5.57;79.03;101667.03;5048341;28;20079;-70
2020/12/17 03:58:45;;;;;;;88.10;33.83;;;;;;;5.53;78.90;101662.44;5048809;28;20410;-71
2020/12/17 04:01:11;;;;;;;84.63;32.47;;;;;;;5.63;78.91;101669.16;5048347;28;20406;-68
2020/12/17 04:03:36;;;;;;;81.07;31.90;;;;;;;5.61;78.13;101665.59;5048183;28;20045;-70
2020/12/17 04:06:02;;;;;;;89.63;33.78;;;;;;;5.50;78.96;101668.22;5048504;28;20149;-70
2020/12/17 04:08:27;;;;;;;85.85;34.03;;;;;;;5.40;79.57;101670.84;5048206;28;20387;-70
2020/12/17 04:10:53;;;;;;;75.68;30.35;;;;;;;5.29;80.55;101671.69;5048621;28;20043;-67
2020/12/17 04:13:18;;;;;;;71.05;28.65;;;;;;;5.16;79.69;101634.00;5048074;28;20036;-74
2020/12/17 04:15:44;;;;;;;74.82;29.75;;;;;;;5.43;80.27;101659.94;5049867;28;20033;-70
2020/12/17 04:18:09;;;;;;;60.50;25.88;;;;;;;5.27;80.39;101673.22;5050102;28;20029;-70
2020/12/17 04:20:34;;;;;;;65.90;27.95;;;;;;;5.32;80.20;101669.34;5050774;28;20025;-68
2020/12/17 04:23:00;;;;;;;61.13;27.27;;;;;;;5.34;80.13;101675.50;5050848;28;20055;-72
2020/12/17 04:25:26;;;;;;;66.50;27.73;;;;;;;5.34;80.02;101649.88;5050725;28;20032;-68
2020/12/17 04:27:51;;;;;;;72.57;36.67;;;;;;;5.34;80.39;101649.88;5050600;28;20037;-71
2020/12/17 04:30:17;;;;;;;54.45;26.90;;;;;;;5.35;80.58;101669.59;5050798;28;20449;-70
2020/12/17 04:32:42;;;;;;;50.22;23.75;;;;;;;5.43;80.27;101660.84;5050222;28;20025;-68
2020/12/17 04:35:07;;;;;;;53.55;27.23;;;;;;;5.51;79.82;101662.31;5050469;28;20025;-72
2020/12/17 04:37:33;;;;;;;59.38;25.98;;;;;;;5.58;79.77;101666.25;5050838;28;20048;-71
2020/12/17 04:39:58;;;;;;;52.92;27.98;;;;;;;5.57;79.62;101664.47;5050654;28;20028;-70
2020/12/17 04:42:24;;;;;;;52.42;29.10;;;;;;;5.66;79.47;101666.84;5032624;28;20490;-70
2020/12/17 04:44:51;;;;;;;52.58;29.30;;;;;;;5.68;79.03;101667.81;5046442;28;20017;-68
2020/12/17 04:47:19;;;;;;;46.45;27.33;;;;;;;5.67;79.05;101668.63;5052521;28;20021;-70
2020/12/17 04:49:52;;;;;;;58.78;32.42;;;;;;;5.79;78.82;101666.97;5048756;28;20518;-72
2020/12/17 04:52:21;;;;;;;61.08;35.40;;;;;;;5.87;78.30;101672.69;5053774;28;20044;-74
2020/12/17 04:54:47;;;;;;;34.92;21.02;;;;;;;5.80;78.23;101671.31;5053535;28;20077;-70
2020/12/17 04:57:15;;;;;;;39.72;22.20;;;;;;;5.59;79.67;101667.16;5054183;28;20386;-68
2020/12/17 04:59:47;;;;;;;36.45;22.25;;;;;;;5.63;79.67;101674.28;5054005;28;20031;-70
2020/12/17 05:02:13;;;;;;;38.00;25.27;;;;;;;5.51;79.67;101649.50;5053803;28;20029;-67
2020/12/17 05:04:44;;;;;;;37.92;22.83;;;;;;;5.47;79.69;101662.88;5048983;28;20141;-67
2020/12/17 05:07:12;;;;;;;37.90;22.15;;;;;;;5.30;80.10;101635.94;5052487;28;20091;-69
2020/12/17 05:09:39;;;;;;;48.00;32.28;;;;;;;5.50;80.27;101672.47;5053874;28;20031;-68
2020/12/17 05:12:05;;;;;;;38.00;20.83;;;;;;;5.59;79.87;101682.50;5053913;28;20028;-74
2020/12/17 05:14:31;;;;;;;31.58;18.48;;;;;;;5.59;79.51;101677.38;5053833;28;20032;-68
2020/12/17 05:16:56;;;;;;;33.55;18.17;;;;;;;5.50;79.97;101695.50;5053843;28;20025;-68
2020/12/17 05:19:24;;;;;;;35.40;19.20;;;;;;;5.58;79.88;101688.41;5042912;28;20497;-70
2020/12/17 05:21:50;;;;;;;41.22;20.52;;;;;;;5.66;79.75;101685.66;5051526;28;20033;-70
2020/12/17 05:24:18;;;;;;;35.40;21.30;;;;;;;5.74;79.53;101680.22;5052128;28;20061;-70
2020/12/17 05:26:44;;;;;;;42.10;21.42;;;;;;;5.84;79.30;101690.38;5053523;28;20033;-71
2020/12/17 05:29:10;;;;;;;33.40;19.20;;;;;;;5.88;79.15;101682.19;5045749;28;20021;-71
2020/12/17 05:31:36;;;;;;;41.03;23.17;;;;;;;5.94;78.85;101692.91;5053181;28;20571;-71
2020/12/17 05:34:03;;;;;;;39.92;21.77;;;;;;;5.94;78.44;101694.53;5053541;28;20029;-68
2020/12/17 05:36:30;;;;;;;40.13;21.58;;;;;;;5.95;78.46;101692.09;5035424;28;20495;-70
2020/12/17 05:39:04;;;;;;;50.92;23.75;;;;;;;5.96;78.36;101691.31;5050319;28;20033;-71
2020/12/17 05:41:30;;;;;;;65.18;30.08;;;;;;;5.92;78.58;101691.88;5053155;28;20078;-68
2020/12/17 05:44:06;;;;;;;62.80;29.15;;;;;;;5.92;79.15;101685.84;5053093;28;20024;-72
2020/12/17 05:46:36;;;;;;;74.65;32.28;;;;;;;5.95;79.48;101688.66;5053228;28;20021;-71
2020/12/17 05:49:38;;;;;;;75.10;33.58;;;;;;;6.00;79.73;101689.91;5052937;28;20052;-70
2020/12/17 05:52:14;;;;;;;67.78;31.80;;;;;;;5.99;79.50;101685.56;4955004;28;20039;-69
2020/12/17 05:54:42;;;;;;;60.53;28.45;;;;;;;6.00;79.65;101682.22;4971896;28;20043;-69
2020/12/17 05:57:16;;;;;;;61.00;29.08;;;;;;;6.04;80.01;101691.91;4971199;28;20027;-71
2020/12/17 06:00:04;;;;;;;59.58;28.48;;;;;;;6.10;80.03;101692.38;4971686;28;20034;-71
2020/12/17 06:02:32;;;;;;;64.90;26.80;;;;;;;6.12;79.69;101687.38;4971087;28;20567;-68
2020/12/17 06:05:11;;;;;;;57.72;26.98;;;;;;;6.19;79.80;101683.59;4971919;28;20420;-70
2020/12/17 06:07:48;;;;;;;71.90;29.73;;;;;;;6.19;79.88;101694.72;4971374;28;20043;-68
2020/12/17 06:10:21;;;;;;;68.80;31.40;;;;;;;6.23;79.51;101691.63;4971634;28;20274;-69
2020/12/17 06:12:49;;;;;;;67.97;30.98;;;;;;;6.18;78.98;101690.41;4970918;28;20097;-69
2020/12/17 06:15:20;;;;;;;70.95;30.90;;;;;;;6.23;78.97;101694.22;4971667;28;20117;-67
2020/12/17 06:17:51;;;;;;;68.07;29.50;;;;;;;6.25;78.47;101704.56;4971526;28;20042;-70
2020/12/17 06:20:17;;;;;;;67.82;30.80;;;;;;;6.21;78.19;101707.69;4971410;28;20050;-70
2020/12/17 06:22:50;;;;;;;65.57;29.90;;;;;;;6.22;78.73;101701.75;4971189;28;20569;-71
2020/12/17 06:25:16;;;;;;;74.07;32.25;;;;;;;6.12;78.71;101693.41;4986049;28;20060;-69
2020/12/17 06:27:46;;;;;;;72.63;32.95;;;;;;;6.29;78.65;101707.47;5052295;28;20028;-70
2020/12/17 06:30:15;;;;;;;77.53;31.58;;;;;;;6.34;78.51;101705.25;5038539;28;20029;-72
2020/12/17 06:32:41;;;;;;;74.55;32.30;;;;;;;6.17;78.08;101669.75;5052410;28;20116;-71
2020/12/17 06:35:20;;;;;;;77.95;33.17;;;;;;;6.34;78.22;101714.63;5051952;28;20113;-72
2020/12/17 06:37:46;;;;;;;77.47;32.70;;;;;;;6.28;77.87;101704.78;5043674;28;20037;-71
2020/12/17 06:40:11;;;;;;;70.18;33.00;;;;;;;6.34;77.78;101712.94;5046918;28;20025;-71
2020/12/17 06:42:39;;;;;;;72.15;32.50;;;;;;;6.21;78.04;101712.81;5049998;28;20059;-71
2020/12/17 06:45:23;;;;;;;72.25;33.53;;;;;;;6.25;78.20;101720.84;5033072;28;20033;-71
2020/12/17 06:47:49;;;;;;;71.30;32.30;;;;;;;6.34;78.24;101719.75;5056467;28;20036;-72
2020/12/17 06:50:22;;;;;;;70.20;32.33;;;;;;;6.19;78.25;101697.31;5053616;28;20414;-72
2020/12/17 06:53:06;;;;;;;68.53;32.42;;;;;;;6.25;78.31;101723.41;5040381;28;20033;-72
2020/12/17 06:55:57;;;;;;;61.53;28.17;;;;;;;6.34;78.23;101715.50;5050126;28;20025;-73
2020/12/17 06:58:24;;;;;;;50.70;24.65;;;;;;;6.35;77.55;101719.84;5047934;28;20521;-72
2020/12/17 07:00:53;;;;;;;56.58;27.67;;;;;;;6.38;77.67;101729.44;5049160;28;20029;-72
2020/12/17 07:03:40;;;;;;;55.08;26.63;;;;;;;6.43;77.36;101730.66;5049926;28;20035;-72
2020/12/17 07:06:18;;;;;;;56.00;25.67;;;;;;;6.45;77.25;101724.00;5038302;28;20032;-72
2020/12/17 07:08:46;;;;;;;51.67;25.45;;;;;;;6.46;77.39;101726.66;5049490;28;20025;-72
2020/12/17 07:11:41;;;;;;;54.70;25.02;;;;;;;6.47;77.60;101728.47;5050027;28;20036;-72
2020/12/17 07:14:19;;;;;;;57.15;26.30;;;;;;;6.44;77.19;101733.38;5050574;28;20064;-72
2020/12/17 07:16:55;;;;;;;61.28;27.13;;;;;;;6.46;77.53;101734.38;5049743;28;20445;-72
2020/12/17 07:19:39;;;;;;;57.33;25.38;;;;;;;6.47;77.37;101723.31;5050129;28;20029;-73
2020/12/17 07:22:24;;;;;;;50.88;24.48;;;;;;;6.48;77.45;101737.06;5049431;28;20545;-72
2020/12/17 07:24:52;;;;;;;48.08;24.08;;;;;;;6.38;77.27;101740.63;5050015;28;20495;-73
2020/12/17 07:27:21;;;;;;;51.35;24.40;;;;;;;6.24;77.58;101729.34;5048494;28;20554;-72
2020/12/17 07:29:50;;;;;;;52.95;24.65;;;;;;;6.27;77.68;101739.81;5030861;28;20033;-72
2020/12/17 07:32:35;;;;;;;53.77;24.00;;;;;;;6.32;77.47;101743.59;5049531;28;20147;-72
2020/12/17 07:35:16;;;;;;;61.08;28.13;;;;;;;6.32;77.65;101740.16;5049410;28;20039;-72
2020/12/17 07:37:49;;;;;;;55.67;25.90;;;;;;;6.24;77.93;101743.81;5050202;28;20067;-72
2020/12/17 07:40:23;;;;;;;56.55;25.92;;;;;;;6.19;78.16;101747.72;5049401;28;20041;-72
2020/12/17 07:43:08;;;;;;;54.00;25.95;;;;;;;6.23;78.23;101747.16;5051073;28;20037;-72
2020/12/17 07:45:52;;;;;;;43.10;21.70;;;;;;;5.99;79.04;101750.56;5049950;28;20033;-72
2020/12/17 07:48:55;;;;;;;43.88;20.15;;;;;;;5.96;78.68;101750.28;5050587;28;20032;-72
2020/12/17 07:51:27;;;;;;;41.78;20.60;;;;;;;5.99;79.02;101752.22;5008462;28;20033;-72
2020/12/17 07:53:53;;;;;;;41.40;20.90;;;;;;;6.00;79.25;101759.13;5007704;28;20041;-72
2020/12/17 07:56:20;;;;;;;43.95;20.95;;;;;;;6.06;78.94;101753.59;5007321;28;20491;-72
2020/12/17 07:58:47;;;;;;;40.85;21.05;;;;;;;6.09;78.77;101754.72;5008125;28;20037;-72
2020/12/17 08:01:14;;;;;;;40.22;20.63;;;;;;;6.16;78.37;101756.06;5007320;28;20113;-72
2020/12/17 08:03:51;;;;;;;42.85;20.27;;;;;;;6.02;78.51;101725.91;5006545;28;20029;-72
2020/12/17 08:06:21;;;;;;;38.67;19.95;;;;;;;6.18;78.19;101764.78;5013279;28;20442;-72
2020/12/17 08:08:51;;;;;;;39.28;20.58;;;;;;;6.13;78.63;101750.69;4991104;28;20033;-72
2020/12/17 08:11:17;;;;;;;41.35;20.40;;;;;;;6.06;78.68;101753.59;5007401;28;20071;-72
2020/12/17 08:13:42;;;;;;;48.03;23.45;;;;;;;6.05;79.12;101751.78;5010192;28;20022;-72
2020/12/17 08:16:08;;;;;;;47.58;24.15;;;;;;;6.12;78.94;101754.94;5007552;28;20070;-72
2020/12/17 08:18:36;;;;;;;43.90;22.83;;;;;;;6.18;79.03;101757.09;5007351;28;20042;-73
2020/12/17 08:21:11;;;;;;;47.42;22.25;;;;;;;6.22;78.57;101755.63;5009194;28;20030;-73
2020/12/17 08:23:40;;;;;;;38.05;20.77;;;;;;;6.25;78.61;101756.75;4999107;28;20045;-72
2020/12/17 08:26:09;;;;;;;36.67;20.30;;;;;;;6.22;78.65;101761.66;5047059;28;20102;-72
2020/12/17 08:28:36;;;;;;;36.85;19.48;;;;;;;6.34;78.52;101763.34;5058297;28;20514;-72
2020/12/17 08:31:32;;;;;;;35.25;17.98;;;;;;;6.36;78.29;101752.41;5053766;28;20029;-72
2020/12/17 08:33:59;;;;;;;43.20;21.13;;;;;;;6.31;78.29;101731.56;5012624;28;20125;-72
2020/12/17 08:36:28;;;;;;;37.42;19.85;;;;;;;6.46;77.32;101760.00;5014902;28;20049;-72
2020/12/17 08:39:04;;;;;;;36.40;18.88;;;;;;;6.36;77.75;101749.84;5010986;28;20046;-72
2020/12/17 08:41:33;;;;;;;32.25;18.55;;;;;;;6.38;77.63;101749.97;5008859;28;20030;-72
2020/12/17 08:44:03;;;;;;;29.25;16.75;;;;;;;6.36;77.46;101743.84;5008895;28;20042;-72
2020/12/17 08:46:32;;;;;;;31.25;17.60;;;;;;;6.42;78.40;101744.31;5014364;28;20044;-72
2020/12/17 08:48:58;;;;;;;85.32;39.38;;;;;;;6.30;78.73;101742.59;5006428;28;20512;-72
2020/12/17 08:51:24;;;;;;;45.20;24.50;;;;;;;6.29;79.36;101742.47;5012232;28;20100;-72
2020/12/17 08:53:50;;;;;;;29.33;16.77;;;;;;;6.16;79.19;101735.53;5011653;28;20034;-72
2020/12/17 08:56:23;;;;;;;25.85;16.27;;;;;;;6.20;79.22;101726.41;5011309;28;20041;-72
2020/12/17 08:58:58;;;;;;;31.90;18.60;;;;;;;6.28;79.93;101733.91;5011603;28;20026;-72
2020/12/17 09:01:31;;;;;;;24.63;15.82;;;;;;;6.20;79.52;101722.16;5010746;28;20029;-72
2020/12/17 09:03:57;;;;;;;29.20;17.02;;;;;;;6.22;79.60;101720.63;4992157;28;20042;-73
2020/12/17 09:06:24;;;;;;;26.13;15.80;;;;;;;5.90;79.19;101698.53;4992388;28;20034;-73
2020/12/17 09:08:50;;;;;;;34.45;19.45;;;;;;;6.09;80.40;101725.59;4959984;28;20042;-74
2020/12/17 09:11:32;;;;;;;28.42;16.48;;;;;;;5.91;80.32;101681.50;5028929;28;20183;-74
2020/12/17 09:14:05;;;;;;;26.85;16.02;;;;;;;6.11;80.71;101721.50;5033792;28;20021;-74
2020/12/17 09:16:33;;;;;;;28.85;17.38;;;;;;;6.17;80.79;101723.59;5033291;28;20100;-74
2020/12/17 09:19:00;;;;;;;28.77;17.45;;;;;;;6.23;80.49;101718.94;5033660;28;20083;-74
2020/12/17 09:21:26;;;;;;;38.40;21.95;;;;;;;6.20;80.27;101711.91;5032961;28;20032;-74
2020/12/17 09:23:56;;;;;;;28.48;18.25;;;;;;;6.22;80.34;101720.63;5050842;28;20064;-74
2020/12/17 09:26:22;;;;;;;30.23;19.45;;;;;;;6.27;80.70;101711.59;5052194;28;20032;-74
2020/12/17 09:28:53;;;;;;;34.75;19.30;;;;;;;6.13;80.71;101710.56;5051992;28;20041;-74
2020/12/17 09:31:23;;;;;;;24.13;15.77;;;;;;;6.06;81.07;101713.44;5051012;28;20138;-74
2020/12/17 09:33:48;;;;;;;24.55;16.33;;;;;;;5.80;82.16;101719.13;5050212;28;20447;-73
2020/12/17 09:36:15;;;;;;;28.33;18.60;;;;;;;5.81;82.34;101708.13;5050468;28;20109;-73
2020/12/17 09:38:41;;;;;;;41.28;21.13;;;;;;;5.86;82.47;101718.69;5050899;28;20434;-74
2020/12/17 09:41:07;;;;;;;50.28;25.60;;;;;;;5.82;81.76;101707.34;5050517;28;20041;-73
2020/12/17 09:43:32;;;;;;;34.13;18.50;;;;;;;5.88;82.06;101709.47;5050657;28;20033;-74
2020/12/17 09:45:58;;;;;;;36.17;21.88;;;;;;;5.96;82.54;101710.94;5050889;28;20067;-74
2020/12/17 09:48:26;;;;;;;34.30;19.60;;;;;;;6.00;82.37;101702.72;5034119;28;20025;-74
2020/12/17 09:50:54;;;;;;;33.80;20.10;;;;;;;6.05;82.88;101700.53;5050347;28;20037;-74
2020/12/17 09:53:21;;;;;;;31.27;18.75;;;;;;;5.79;82.17;101666.09;5050663;28;20029;-74
2020/12/17 09:55:48;;;;;;;29.42;17.88;;;;;;;5.97;81.87;101698.22;5050350;28;20052;-74
2020/12/17 09:58:14;;;;;;;33.25;18.77;;;;;;;5.59;81.98;101634.72;5050167;28;20530;-74
2020/12/17 10:00:41;;;;;;;31.85;18.23;;;;;;;5.96;82.61;101695.56;5050767;28;20518;-74
2020/12/17 10:03:06;;;;;;;33.17;19.17;;;;;;;5.93;82.31;101691.09;5069550;28;20406;-74
2020/12/17 10:05:32;;;;;;;29.45;19.15;;;;;;;5.91;82.72;101682.38;5068217;28;20530;-74
2020/12/17 10:07:58;;;;;;;31.55;19.77;;;;;;;5.95;83.17;101686.97;5052624;28;20033;-74
2020/12/17 10:10:23;;;;;;;28.30;19.80;;;;;;;6.03;82.61;101691.81;5066442;28;20552;-73
2020/12/17 10:12:49;;;;;;;30.63;19.67;;;;;;;5.94;82.04;101689.41;5051789;28;20029;-73
2020/12/17 10:15:15;;;;;;;29.90;19.55;;;;;;;5.95;81.99;101694.66;5052569;28;20036;-73
2020/12/17 10:17:40;;;;;;;30.10;17.92;;;;;;;5.91;81.96;101695.22;5051419;28;20025;-73
2020/12/17 10:20:07;;;;;;;33.90;19.85;;;;;;;5.90;82.82;101690.84;5052193;28;20087;-72
2020/12/17 10:22:33;;;;;;;50.13;38.80;;;;;;;5.91;83.21;101690.09;5052037;28;20432;-71
2020/12/17 10:24:58;;;;;;;28.17;18.08;;;;;;;5.75;81.99;101659.84;5052337;28;20040;-75
2020/12/17 10:27:24;;;;;;;33.17;22.02;;;;;;;5.97;82.51;101682.84;5051831;28;20032;-74
2020/12/17 10:29:49;;;;;;;29.10;18.73;;;;;;;5.97;82.23;101681.97;5052044;28;20108;-76
2020/12/17 10:32:18;;;;;;;29.08;20.52;;;;;;;5.84;82.25;101646.81;5053475;28;20081;-73
2020/12/17 10:34:43;;;;;;;30.40;19.23;;;;;;;6.06;82.79;101676.69;5053186;28;20021;-75
2020/12/17 10:37:09;;;;;;;27.38;17.20;;;;;;;6.09;82.54;101684.59;5050918;28;20411;-75
2020/12/17 10:39:34;;;;;;;29.88;19.73;;;;;;;6.14;83.00;101668.78;5050299;28;20016;-75
2020/12/17 10:42:03;;;;;;;31.75;19.02;;;;;;;6.18;81.77;101671.56;5052327;28;20021;-76
2020/12/17 10:44:29;;;;;;;28.17;18.33;;;;;;;6.03;81.59;101623.50;5050703;28;20028;-77
2020/12/17 10:46:56;;;;;;;29.63;17.70;;;;;;;6.25;81.56;101659.28;5051694;28;20021;-72
2020/12/17 10:49:22;;;;;;;30.35;19.77;;;;;;;6.31;80.37;101661.44;5051156;28;20039;-75
2020/12/17 10:51:49;;;;;;;30.40;20.27;;;;;;;6.13;80.53;101637.88;5051519;28;20108;-74
2020/12/17 10:54:14;;;;;;;27.55;17.85;;;;;;;6.35;80.79;101665.09;5050995;28;20032;-75
2020/12/17 10:56:59;;;;;;;33.83;19.10;;;;;;;6.40;80.25;101662.09;5050752;28;20032;-73
2020/12/17 10:59:25;;;;;;;30.15;18.50;;;;;;;6.50;79.97;101665.34;5045628;28;20047;-72
2020/12/17 11:01:55;;;;;;;28.17;16.45;;;;;;;6.48;79.14;101639.59;5047240;28;20423;-74
2020/12/17 11:04:20;;;;;;;25.30;16.10;;;;;;;6.61;78.62;101649.03;5048831;28;20049;-77
2020/12/17 11:06:45;;;;;;;38.05;23.52;;;;;;;6.73;79.39;101649.00;5048087;28;20036;-73
2020/12/17 11:09:11;;;;;;;26.67;15.85;;;;;;;6.80;78.66;101648.66;5048952;28;20103;-75
2020/12/17 11:11:36;;;;;;;32.63;17.08;;;;;;;6.77;78.53;101646.78;5031555;28;20516;-75
2020/12/17 11:14:02;;;;;;;35.83;19.98;;;;;;;6.70;78.04;101634.28;5049072;28;20037;-74
2020/12/17 11:16:27;;;;;;;25.60;15.23;;;;;;;6.56;78.35;101643.56;5048416;28;20108;-74
2020/12/17 11:18:54;;;;;;;32.40;20.10;;;;;;;6.62;78.32;101645.69;5047787;28;20060;-72
2020/12/17 11:21:22;;;;;;;26.05;16.67;;;;;;;6.44;78.68;101642.69;5041697;28;20040;-75
2020/12/17 11:23:47;;;;;;;52.65;29.90;;;;;;;6.30;79.73;101629.72;5032130;28;20037;-74